静岡空港の過去48時間の天気

静岡空港 (Shizuoka)

現在時刻: 12/8 17:41 JST (12/8 08:41 UTC) 以下の時間は現地時間です。

過去48時間のMETAR気象情報
時間 風向 風速(m/s) 視程 気温(℃) 湿度(%) 気圧(hPa) 天気現象
8 17:00 北北西 2 10km以上 12 94 1019
8 16:00 不定 1 10km以上 13 82 1018
8 15:00 西南西 2 10km以上 13 77 1017
8 14:00 西 3 10km以上 14 72 1017
8 13:00 西南西 4 10km以上 15 63 1016
8 12:00 南西 3 10km以上 13 100 1016
8 11:00 西南西 3 10km以上 12 100 1017 周辺でしゅう雨
8 10:00 西 2 10km以上 12 100 1017 弱い雨
8 09:00 西南西 3 10km以上 11 100 1017 周辺でしゅう雨
8 08:00 不定 1 10km以上 11 100 1016 弱い雨
8 07:30 2 10km以上 11 100 1016 弱い雨
RJNS 080800Z 34003KT 9999 FEW002 SCT060 BKN130 12/11 Q1019
RJNS 080700Z VRB02KT 9999 FEW007 SCT060 BKN120 13/10 Q1018
RJNS 080600Z 24003KT 210V270 9999 FEW007 SCT060 BKN130 13/09 Q1017
RJNS 080500Z 26006KT 9999 FEW005 SCT060 BKN120 14/09 Q1017
RJNS 080400Z 25008KT 190V280 9999 FEW005 BKN120 15/08 Q1016
RJNS 080300Z 23005KT 190V270 9999 FEW003 SCT012 BKN014 13/13 Q1016
RJNS 080200Z 25005KT 9999 VCSH FEW002 SCT045 BKN090 12/12 Q1017
RJNS 080100Z 26003KT 9999 -RA FEW000 SCT040 BKN060 12/12 Q1017
RJNS 080000Z 25005KT 9999 VCSH FEW000 BKN020 11/11 Q1017
RJNS 072300Z VRB01KT 9999 -RA FEW000 BKN060 11/11 Q1016
RJNS 072230Z 08003KT 040V120 9999 -RA FEW000 BKN060 11/11 Q1016